Time;durP1;ratioP1;P1;durP2;ratioP2;P2;SDS_P1;SDS_P2;PMS_P1;PMS_P2;Temp;Humidity;BMP_temperature;BMP_pressure;BME280_temperature;BME280_humidity;BME280_pressure;Samples;Min_cycle;Max_cycle;Signal;HPM_P1;HPM_P2
2021/04/22 00:00:43;;;;;;;7.28;3.42;;;12.80;50.50;;;;;;5009822;28;20029;-76
2021/04/22 00:03:10;;;;;;;6.13;3.47;;;12.80;50.70;;;;;;4992827;28;20025;-76
2021/04/22 00:05:39;;;;;;;5.18;2.92;;;12.70;50.60;;;;;;4993687;28;20037;-76
2021/04/22 00:08:07;;;;;;;3.97;2.50;;;12.70;50.70;;;;;;5009132;28;20140;-76
2021/04/22 00:10:46;;;;;;;5.13;2.50;;;12.60;50.50;;;;;;4985981;28;20052;-76
2021/04/22 00:13:16;;;;;;;6.07;2.92;;;12.60;50.70;;;;;;4990474;28;20084;-76
2021/04/22 00:15:43;;;;;;;4.68;2.58;;;12.50;50.50;;;;;;4989260;28;20038;-76
2021/04/22 00:18:10;;;;;;;5.78;2.85;;;12.50;50.60;;;;;;5005367;28;20482;-76
2021/04/22 00:20:38;;;;;;;5.63;3.08;;;12.50;50.70;;;;;;4988982;28;20713;-76
2021/04/22 00:23:06;;;;;;;6.72;3.15;;;12.40;50.60;;;;;;4989168;28;20030;-76
2021/04/22 00:25:32;;;;;;;5.57;2.92;;;12.40;50.60;;;;;;5006810;28;20608;-76
2021/04/22 00:28:03;;;;;;;6.30;3.30;;;12.30;50.50;;;;;;5005710;28;20501;-76
2021/04/22 00:30:29;;;;;;;4.88;3.08;;;12.30;50.70;;;;;;4989700;28;20043;-76
2021/04/22 00:32:55;;;;;;;6.30;3.30;;;12.20;50.50;;;;;;5005322;28;20030;-76
2021/04/22 00:35:22;;;;;;;6.40;3.28;;;12.20;50.50;;;;;;4989765;28;20041;-76
2021/04/22 00:37:49;;;;;;;3.78;2.42;;;12.20;50.60;;;;;;4989191;28;20026;-76
2021/04/22 00:40:23;;;;;;;5.15;2.90;;;12.20;50.70;;;;;;5005349;28;20030;-76
2021/04/22 00:42:50;;;;;;;8.20;3.17;;;12.10;50.60;;;;;;5006488;28;20036;-76
2021/04/22 00:45:17;;;;;;;4.15;2.47;;;12.10;50.60;;;;;;4973005;28;20046;-75
2021/04/22 00:47:44;;;;;;;5.28;2.75;;;12.00;51.00;;;;;;5006325;28;20520;-76
2021/04/22 00:50:24;;;;;;;6.22;2.60;;;12.00;50.50;;;;;;4988219;28;20022;-75
2021/04/22 00:52:55;;;;;;;4.93;3.03;;;11.90;50.40;;;;;;5005905;28;20042;-76
2021/04/22 00:55:22;;;;;;;5.50;2.80;;;12.00;50.70;;;;;;4990233;28;20251;-76
2021/04/22 00:57:48;;;;;;;5.82;2.75;;;11.90;50.50;;;;;;4988981;28;20038;-76
2021/04/22 01:00:18;;;;;;;5.50;3.22;;;11.90;51.10;;;;;;4989561;28;20120;-77
2021/04/22 01:02:45;;;;;;;7.13;3.33;;;11.80;50.40;;;;;;4977613;28;20045;-78
2021/04/22 01:05:16;;;;;;;3.95;3.05;;;11.80;50.50;;;;;;4977540;28;20026;-77
2021/04/22 01:07:43;;;;;;;6.20;3.03;;;11.70;50.40;;;;;;4992384;28;20037;-77
2021/04/22 01:10:11;;;;;;;7.40;2.63;;;11.70;50.40;;;;;;4976522;28;20511;-76
2021/04/22 01:12:38;;;;;;;4.40;2.38;;;11.60;50.30;;;;;;5012364;28;20116;-76
2021/04/22 01:15:17;;;;;;;5.53;3.30;;;11.60;50.30;;;;;;5021916;28;20081;-76
2021/04/22 01:17:44;;;;;;;10.98;3.08;;;11.50;50.20;;;;;;4975997;28;20537;-77
2021/04/22 01:20:13;;;;;;;4.18;2.78;;;11.50;50.20;;;;;;5024879;28;20593;-77
2021/04/22 01:22:40;;;;;;;5.90;2.67;;;11.50;50.90;;;;;;5029408;28;20515;-76
2021/04/22 01:25:08;;;;;;;4.30;2.72;;;11.40;50.20;;;;;;5029584;28;20029;-76
2021/04/22 01:27:35;;;;;;;5.75;2.67;;;11.40;50.20;;;;;;5029790;28;20037;-76
2021/04/22 01:30:03;;;;;;;4.75;2.78;;;11.30;50.10;;;;;;5029752;28;20040;-76
2021/04/22 01:32:30;;;;;;;4.13;2.65;;;11.30;50.10;;;;;;4984768;28;20055;-76
2021/04/22 01:34:56;;;;;;;5.15;2.83;;;11.30;50.20;;;;;;4992553;28;20045;-76
2021/04/22 01:37:22;;;;;;;4.65;2.72;;;11.20;50.10;;;;;;5000653;28;20045;-76
2021/04/22 01:39:48;;;;;;;4.68;3.00;;;11.20;50.10;;;;;;5017927;28;20496;-76
2021/04/22 01:42:14;;;;;;;5.05;2.65;;;11.20;50.20;;;;;;4997357;28;20033;-76
2021/04/22 01:44:40;;;;;;;5.85;2.70;;;11.10;50.10;;;;;;5012587;28;20030;-77
2021/04/22 01:47:06;;;;;;;4.40;2.65;;;11.20;50.30;;;;;;4997072;28;20579;-76
2021/04/22 01:49:32;;;;;;;4.55;2.47;;;11.10;50.10;;;;;;4978273;28;20030;-75
2021/04/22 01:51:58;;;;;;;3.83;2.88;;;11.00;50.00;;;;;;4996282;28;20034;-77
2021/04/22 01:54:24;;;;;;;4.30;2.53;;;11.00;50.10;;;;;;5014521;28;20080;-78
2021/04/22 01:56:50;;;;;;;6.78;2.38;;;11.00;50.10;;;;;;5013730;28;20034;-77
2021/04/22 01:59:15;;;;;;;4.68;2.70;;;10.90;50.00;;;;;;4980545;28;20033;-77
2021/04/22 02:01:41;;;;;;;3.05;2.25;;;10.90;50.10;;;;;;4996357;28;20033;-78
2021/04/22 02:04:07;;;;;;;5.15;2.75;;;10.90;50.20;;;;;;4996036;28;20343;-77
2021/04/22 02:06:33;;;;;;;5.72;2.58;;;10.80;50.10;;;;;;4996379;28;20030;-77
2021/04/22 02:08:59;;;;;;;4.78;2.78;;;10.80;50.20;;;;;;4996097;28;20493;-77
2021/04/22 02:11:25;;;;;;;3.95;2.85;;;10.80;50.20;;;;;;5006762;28;20049;-77
2021/04/22 02:13:51;;;;;;;5.90;2.45;;;10.70;50.10;;;;;;4999231;28;20476;-77
2021/04/22 02:16:17;;;;;;;7.13;3.10;;;10.70;50.10;;;;;;5015544;28;20036;-77
2021/04/22 02:18:43;;;;;;;3.97;2.70;;;10.70;50.20;;;;;;4999271;28;20032;-77
2021/04/22 02:21:09;;;;;;;6.15;2.88;;;10.70;50.20;;;;;;4999400;28;20502;-77
2021/04/22 02:23:35;;;;;;;3.42;2.53;;;10.60;50.00;;;;;;5015572;28;20048;-77
2021/04/22 02:26:01;;;;;;;6.65;2.78;;;10.60;50.10;;;;;;4999258;28;20096;-77
2021/04/22 02:28:27;;;;;;;4.15;2.47;;;10.50;49.90;;;;;;5015734;28;20037;-77
2021/04/22 02:30:53;;;;;;;9.88;3.08;;;10.50;50.00;;;;;;5015223;28;20064;-77
2021/04/22 02:33:19;;;;;;;5.00;2.70;;;10.50;50.00;;;;;;5015432;28;20037;-77
2021/04/22 02:35:48;;;;;;;5.45;2.65;;;10.50;50.10;;;;;;5015485;28;20026;-77
2021/04/22 02:38:14;;;;;;;7.63;2.78;;;10.40;50.00;;;;;;5015293;28;20904;-77
2021/04/22 02:40:42;;;;;;;3.08;2.38;;;10.40;50.00;;;;;;5033438;28;20025;-76
2021/04/22 02:43:11;;;;;;;6.22;2.47;;;10.40;50.10;;;;;;5032731;28;20092;-77
2021/04/22 02:45:40;;;;;;;4.57;2.78;;;10.30;50.00;;;;;;4982550;28;20128;-76
2021/04/22 02:48:06;;;;;;;2.90;2.30;;;10.30;50.00;;;;;;5014542;28;20123;-77
2021/04/22 02:50:35;;;;;;;6.72;2.80;;;10.20;49.90;;;;;;5015018;28;20029;-77
2021/04/22 02:53:03;;;;;;;5.00;2.22;;;10.20;49.90;;;;;;4998366;28;20052;-77
2021/04/22 02:55:29;;;;;;;6.55;2.65;;;10.10;49.70;;;;;;5033216;28;20108;-77
2021/04/22 02:57:54;;;;;;;6.40;3.13;;;10.10;49.80;;;;;;5014742;28;20160;-76
2021/04/22 03:00:23;;;;;;;4.95;3.00;;;10.10;49.80;;;;;;5014526;28;20025;-76
2021/04/22 03:02:49;;;;;;;4.07;2.65;;;10.00;49.70;;;;;;4998827;28;20029;-77
2021/04/22 03:05:17;;;;;;;6.05;2.85;;;9.90;49.60;;;;;;5014904;28;20044;-76
2021/04/22 03:07:43;;;;;;;6.45;2.50;;;9.90;49.60;;;;;;4997933;28;20103;-77
2021/04/22 03:10:13;;;;;;;3.88;2.75;;;9.90;49.60;;;;;;5030797;28;20392;-77
2021/04/22 03:12:39;;;;;;;5.25;2.70;;;9.90;49.70;;;;;;5014816;28;20041;-77
2021/04/22 03:15:06;;;;;;;3.65;2.72;;;9.80;49.50;;;;;;5014821;28;20112;-77
2021/04/22 03:17:33;;;;;;;5.45;3.05;;;9.80;49.60;;;;;;4998343;28;20057;-77
2021/04/22 03:19:59;;;;;;;5.70;2.92;;;9.70;49.50;;;;;;5014568;28;20087;-77
2021/04/22 03:22:25;;;;;;;4.07;2.70;;;9.70;49.50;;;;;;4998059;28;20030;-76
2021/04/22 03:24:52;;;;;;;3.78;2.40;;;9.70;49.50;;;;;;5013989;28;20060;-78
2021/04/22 03:27:18;;;;;;;4.20;2.25;;;9.60;49.40;;;;;;5013535;28;20467;-77
2021/04/22 03:29:44;;;;;;;7.07;2.50;;;9.60;49.50;;;;;;5014338;28;20022;-78
2021/04/22 03:32:10;;;;;;;4.75;3.35;;;9.60;49.50;;;;;;4998049;28;20116;-78
2021/04/22 03:34:36;;;;;;;5.55;2.95;;;9.50;49.40;;;;;;5014177;28;20033;-77
2021/04/22 03:37:02;;;;;;;4.10;2.35;;;9.50;49.40;;;;;;5014085;28;20035;-77
2021/04/22 03:39:28;;;;;;;6.88;2.40;;;9.50;49.50;;;;;;5014274;28;20029;-77
2021/04/22 03:41:54;;;;;;;6.00;2.40;;;9.40;49.30;;;;;;4997404;28;20545;-77
2021/04/22 03:44:20;;;;;;;6.47;2.90;;;9.40;49.40;;;;;;5031694;28;20124;-77
2021/04/22 03:46:46;;;;;;;3.47;2.60;;;9.40;49.40;;;;;;5013850;28;20033;-77
2021/04/22 03:49:12;;;;;;;4.82;2.70;;;9.40;49.50;;;;;;5031905;28;20029;-77
2021/04/22 03:51:38;;;;;;;5.30;2.35;;;9.30;49.30;;;;;;5031478;28;20037;-77
2021/04/22 03:54:05;;;;;;;4.78;2.70;;;9.30;49.40;;;;;;5031842;28;20033;-77
2021/04/22 03:56:31;;;;;;;5.38;2.75;;;9.30;49.50;;;;;;5031535;28;20029;-77
2021/04/22 03:58:57;;;;;;;5.22;2.38;;;9.20;49.30;;;;;;5013883;28;20033;-76
2021/04/22 04:01:23;;;;;;;4.55;2.42;;;9.20;49.30;;;;;;5031581;28;20033;-76
2021/04/22 04:03:49;;;;;;;5.50;2.47;;;9.20;49.30;;;;;;5014086;28;20113;-76
2021/04/22 04:06:14;;;;;;;6.90;2.53;;;9.20;49.40;;;;;;5013385;28;20148;-76
2021/04/22 04:08:40;;;;;;;4.50;2.63;;;9.10;49.20;;;;;;5013808;28;20041;-76
2021/04/22 04:11:06;;;;;;;6.43;2.42;;;9.10;49.30;;;;;;4993338;28;20487;-77
2021/04/22 04:13:32;;;;;;;5.63;2.60;;;9.00;49.20;;;;;;4977826;28;20049;-76
2021/04/22 04:15:58;;;;;;;5.25;2.90;;;9.00;49.20;;;;;;5011836;28;20058;-77
2021/04/22 04:18:24;;;;;;;6.03;2.78;;;9.00;49.20;;;;;;4994104;28;20028;-76
2021/04/22 04:20:50;;;;;;;5.82;3.10;;;9.00;49.20;;;;;;4993835;28;20030;-76
2021/04/22 04:23:16;;;;;;;4.32;2.72;;;9.00;49.30;;;;;;4977858;28;20033;-76
2021/04/22 04:25:42;;;;;;;7.00;3.20;;;8.90;49.10;;;;;;4993600;28;20069;-76
2021/04/22 04:28:09;;;;;;;7.50;2.67;;;8.90;49.20;;;;;;4993801;28;20401;-76
2021/04/22 04:30:35;;;;;;;3.72;2.17;;;8.90;49.20;;;;;;5009895;28;20496;-76
2021/04/22 04:33:01;;;;;;;6.10;2.90;;;8.80;49.00;;;;;;4993474;28;20034;-77
2021/04/22 04:35:27;;;;;;;6.80;2.90;;;8.80;49.10;;;;;;5010262;28;20034;-76
2021/04/22 04:37:54;;;;;;;5.85;2.75;;;8.80;49.10;;;;;;4993886;28;20034;-77
2021/04/22 04:40:20;;;;;;;3.72;2.20;;;8.80;49.20;;;;;;5011090;28;20032;-76
2021/04/22 04:42:46;;;;;;;4.75;2.25;;;8.70;49.00;;;;;;4977393;28;20133;-76
2021/04/22 04:45:18;;;;;;;5.65;2.88;;;8.70;49.00;;;;;;4993819;28;20068;-76
2021/04/22 04:47:45;;;;;;;6.45;2.63;;;8.60;48.90;;;;;;5005935;28;20034;-76
2021/04/22 04:50:12;;;;;;;4.22;2.42;;;8.60;48.90;;;;;;4988348;28;20069;-77
2021/04/22 04:52:38;;;;;;;4.75;2.88;;;8.60;48.90;;;;;;4970645;28;20038;-76
2021/04/22 04:55:06;;;;;;;7.65;3.03;;;8.60;48.90;;;;;;4986435;28;20035;-76
2021/04/22 04:57:32;;;;;;;7.88;2.90;;;8.50;48.80;;;;;;4988980;28;20378;-76
2021/04/22 04:59:58;;;;;;;3.45;2.45;;;8.50;48.80;;;;;;4990643;28;20061;-76
2021/04/22 05:02:24;;;;;;;3.83;2.47;;;8.50;48.90;;;;;;5004948;28;20061;-76
2021/04/22 05:04:50;;;;;;;6.32;3.22;;;8.40;48.70;;;;;;4989017;28;20038;-76
2021/04/22 05:07:16;;;;;;;5.60;2.30;;;8.40;48.70;;;;;;5004973;28;20060;-77
2021/04/22 05:09:42;;;;;;;4.55;2.50;;;8.40;48.80;;;;;;5006012;28;20026;-77
2021/04/22 05:12:08;;;;;;;4.53;2.97;;;8.30;48.70;;;;;;5003929;28;20065;-77
2021/04/22 05:14:34;;;;;;;5.85;3.17;;;8.40;49.00;;;;;;5008723;28;20022;-77
2021/04/22 05:17:00;;;;;;;5.38;2.72;;;8.30;48.80;;;;;;5008305;28;20067;-76
2021/04/22 05:19:26;;;;;;;4.38;2.22;;;8.30;48.90;;;;;;5024388;28;20420;-76
2021/04/22 05:21:53;;;;;;;4.65;2.28;;;8.30;48.90;;;;;;5007646;28;20039;-75
2021/04/22 05:24:19;;;;;;;4.88;2.60;;;8.30;48.90;;;;;;5024136;28;20064;-76
2021/04/22 05:26:45;;;;;;;4.78;2.38;;;8.30;49.00;;;;;;5008598;28;20271;-78
2021/04/22 05:29:11;;;;;;;3.85;2.60;;;8.30;49.00;;;;;;5024917;28;20061;-79
2021/04/22 05:31:37;;;;;;;7.40;2.88;;;8.30;49.00;;;;;;5009013;28;20056;-76
2021/04/22 05:34:03;;;;;;;7.18;3.17;;;8.20;48.90;;;;;;5025053;28;20053;-76
2021/04/22 05:36:30;;;;;;;6.38;3.17;;;8.20;48.90;;;;;;5000525;28;20252;-78
2021/04/22 05:38:55;;;;;;;5.38;2.75;;;8.20;48.90;;;;;;4987177;28;20040;-77
2021/04/22 05:41:21;;;;;;;3.65;2.75;;;8.20;48.90;;;;;;5004674;28;20042;-77
2021/04/22 05:43:48;;;;;;;4.82;2.70;;;8.20;48.90;;;;;;4977359;28;20037;-79
2021/04/22 05:46:14;;;;;;;4.93;2.63;;;8.20;49.00;;;;;;4998040;28;20033;-79
2021/04/22 05:48:40;;;;;;;9.32;2.95;;;8.20;49.00;;;;;;5000676;28;20036;-80
2021/04/22 05:51:07;;;;;;;6.35;2.75;;;8.20;49.00;;;;;;4985949;28;20050;-77
2021/04/22 05:53:33;;;;;;;9.30;2.72;;;8.20;49.00;;;;;;4994979;28;20045;-77
2021/04/22 05:55:59;;;;;;;7.32;3.05;;;8.30;49.20;;;;;;5011387;28;20124;-78
2021/04/22 05:58:24;;;;;;;6.40;2.60;;;8.30;49.20;;;;;;5011257;28;20120;-76
2021/04/22 06:00:51;;;;;;;6.90;2.53;;;8.30;49.20;;;;;;5010363;28;20026;-75
2021/04/22 06:03:17;;;;;;;7.07;2.78;;;8.40;49.40;;;;;;5029063;28;20350;-76
2021/04/22 06:05:43;;;;;;;5.55;2.95;;;8.50;49.60;;;;;;5027639;28;20643;-76
2021/04/22 06:08:09;;;;;;;5.10;2.85;;;8.60;49.80;;;;;;5010993;28;20049;-76
2021/04/22 06:10:37;;;;;;;7.32;3.10;;;8.60;49.70;;;;;;5007140;28;20157;-75
2021/04/22 06:13:04;;;;;;;8.10;2.75;;;8.70;49.90;;;;;;5018089;28;20428;-75
2021/04/22 06:15:30;;;;;;;4.13;2.65;;;8.80;50.10;;;;;;5017440;28;20022;-75
2021/04/22 06:17:56;;;;;;;6.82;2.83;;;8.90;50.20;;;;;;5011969;28;20432;-77
2021/04/22 06:20:24;;;;;;;4.32;2.78;;;9.00;50.30;;;;;;5010855;28;20029;-79
2021/04/22 06:22:50;;;;;;;11.07;2.63;;;9.10;50.50;;;;;;5002188;28;20083;-78
2021/04/22 06:25:19;;;;;;;4.97;2.78;;;9.30;50.80;;;;;;5009009;28;20118;-78
2021/04/22 06:27:46;;;;;;;7.95;3.08;;;9.40;51.00;;;;;;5006865;28;20045;-78
2021/04/22 06:30:13;;;;;;;4.78;2.50;;;9.50;51.20;;;;;;5009097;28;20468;-78
2021/04/22 06:32:40;;;;;;;10.20;2.88;;;9.70;51.50;;;;;;4989646;28;20087;-78
2021/04/22 06:35:08;;;;;;;5.53;3.03;;;9.90;51.80;;;;;;5006249;28;20041;-78
2021/04/22 06:37:34;;;;;;;5.43;2.90;;;10.00;51.90;;;;;;5005878;28;20029;-78
2021/04/22 06:40:00;;;;;;;5.70;3.00;;;10.20;52.20;;;;;;5010397;28;20030;-79
2021/04/22 06:42:28;;;;;;;6.13;3.30;;;10.40;52.50;;;;;;5010090;28;20040;-77
2021/04/22 06:44:54;;;;;;;8.27;3.33;;;10.60;52.80;;;;;;5010925;28;20040;-81
2021/04/22 06:47:20;;;;;;;7.10;3.05;;;10.90;53.80;;;;;;5010518;28;20037;-81
2021/04/22 06:49:46;;;;;;;5.43;2.47;;;11.10;53.40;;;;;;5010014;28;20030;-81
2021/04/22 06:52:13;;;;;;;11.13;3.92;;;11.30;53.60;;;;;;5009870;28;20040;-78
2021/04/22 06:54:40;;;;;;;10.32;3.38;;;11.60;53.90;;;;;;4994603;28;20442;-80
2021/04/22 06:57:06;;;;;;;5.55;3.05;;;11.80;54.10;;;;;;4994400;28;20033;-79
2021/04/22 06:59:32;;;;;;;8.15;3.50;;;12.00;54.20;;;;;;4993122;28;20485;-80
2021/04/22 07:01:58;;;;;;;8.07;2.92;;;12.30;54.60;;;;;;5010280;28;20025;-79
2021/04/22 07:04:26;;;;;;;5.78;2.92;;;12.50;54.80;;;;;;5009930;28;20128;-80
2021/04/22 07:06:52;;;;;;;6.13;3.17;;;12.80;55.10;;;;;;5010505;28;20115;-80
2021/04/22 07:09:18;;;;;;;9.25;3.28;;;13.10;55.50;;;;;;4993778;28;20033;-81
2021/04/22 07:11:47;;;;;;;12.10;3.13;;;13.40;55.70;;;;;;5009905;28;20132;-80
2021/04/22 07:14:13;;;;;;;6.93;3.25;;;13.70;55.80;;;;;;5026172;28;20063;-82
2021/04/22 07:16:40;;;;;;;5.30;2.58;;;13.90;55.70;;;;;;5009610;28;20033;-79
2021/04/22 07:19:07;;;;;;;7.25;2.78;;;14.20;55.80;;;;;;5009779;28;20045;-81
2021/04/22 07:21:36;;;;;;;5.38;3.13;;;14.50;55.80;;;;;;5010177;28;20101;-82
2021/04/22 07:24:03;;;;;;;7.38;2.95;;;14.80;55.80;;;;;;4992560;28;20029;-80
2021/04/22 07:26:29;;;;;;;5.40;3.13;;;15.10;55.80;;;;;;5010759;28;20114;-82
2021/04/22 07:28:55;;;;;;;4.75;2.53;;;15.30;55.60;;;;;;5009805;28;20037;-83
2021/04/22 07:31:21;;;;;;;6.97;2.50;;;15.60;55.60;;;;;;5010668;28;20376;-81
2021/04/22 07:33:48;;;;;;;8.93;3.00;;;15.80;55.40;;;;;;5009549;28;20463;-81
2021/04/22 07:36:14;;;;;;;6.03;2.45;;;16.00;55.30;;;;;;5010208;28;20032;-81
2021/04/22 07:38:40;;;;;;;7.78;3.17;;;16.20;55.10;;;;;;5008846;28;20150;-83
2021/04/22 07:41:06;;;;;;;5.95;3.13;;;16.30;54.80;;;;;;5009178;28;20116;-81
2021/04/22 07:43:32;;;;;;;5.40;3.25;;;16.60;54.80;;;;;;5008976;28;20087;-81
2021/04/22 07:45:58;;;;;;;8.20;3.30;;;16.70;54.50;;;;;;5026873;28;20033;-81
2021/04/22 07:48:24;;;;;;;4.85;2.42;;;16.90;54.30;;;;;;5026710;28;20037;-81
2021/04/22 07:50:50;;;;;;;8.63;2.80;;;17.10;54.20;;;;;;5009902;28;20036;-82
2021/04/22 07:53:16;;;;;;;12.15;3.42;;;17.20;53.90;;;;;;5009333;28;20043;-82
2021/04/22 07:55:44;;;;;;;6.97;3.22;;;17.30;53.60;;;;;;5025527;28;20498;-80
2021/04/22 07:58:14;;;;;;;4.68;2.88;;;17.50;53.50;;;;;;5026327;28;20392;-80
2021/04/22 08:00:41;;;;;;;5.60;3.00;;;17.60;53.10;;;;;;5026730;28;20033;-81
2021/04/22 08:03:09;;;;;;;6.10;2.78;;;17.70;52.90;;;;;;5014173;28;20025;-80
2021/04/22 08:05:38;;;;;;;6.82;2.88;;;17.90;52.90;;;;;;5042240;28;20053;-81
2021/04/22 08:08:10;;;;;;;6.22;2.80;;;18.00;52.60;;;;;;5041909;28;20414;-79
2021/04/22 08:10:39;;;;;;;4.95;2.40;;;18.10;52.20;;;;;;5024780;28;20046;-80
2021/04/22 08:13:06;;;;;;;10.45;3.28;;;18.20;52.10;;;;;;5025658;28;20036;-82
2021/04/22 08:15:33;;;;;;;5.30;2.88;;;18.30;51.90;;;;;;5009564;28;20034;-81
2021/04/22 08:18:00;;;;;;;7.32;3.17;;;18.40;51.70;;;;;;5027709;28;20022;-80
2021/04/22 08:20:26;;;;;;;9.45;3.53;;;18.40;51.30;;;;;;5027424;28;20068;-82
2021/04/22 08:22:54;;;;;;;8.77;3.05;;;18.50;51.10;;;;;;5008863;28;20036;-84
2021/04/22 08:25:26;;;;;;;4.85;2.95;;;18.50;50.70;;;;;;5008946;28;20037;-83
2021/04/22 08:27:54;;;;;;;5.20;2.42;;;18.40;50.30;;;;;;4992614;28;20033;-80
2021/04/22 08:30:25;;;;;;;8.50;2.90;;;18.40;50.10;;;;;;4992684;28;20040;-80
2021/04/22 08:32:51;;;;;;;7.90;3.15;;;18.30;49.90;;;;;;4994258;28;20443;-82
2021/04/22 08:35:18;;;;;;;5.78;3.20;;;18.20;49.90;;;;;;4992702;28;20117;-82
2021/04/22 08:37:44;;;;;;;6.53;2.70;;;18.20;49.90;;;;;;4992605;28;20026;-82
2021/04/22 08:40:13;;;;;;;7.68;3.03;;;18.10;50.00;;;;;;5023514;28;20030;-81
2021/04/22 08:42:40;;;;;;;8.98;3.05;;;17.90;49.40;;;;;;5009064;28;20095;-82
2021/04/22 08:45:09;;;;;;;5.70;2.85;;;17.80;49.30;;;;;;5008561;28;20064;-82
2021/04/22 08:47:36;;;;;;;7.57;3.00;;;17.60;49.10;;;;;;4992374;28;20118;-81
2021/04/22 08:50:04;;;;;;;9.93;4.38;;;17.50;49.10;;;;;;5009640;28;20581;-81
2021/04/22 08:52:30;;;;;;;7.80;3.17;;;17.40;49.00;;;;;;4992146;28;20696;-82
2021/04/22 08:54:57;;;;;;;11.38;3.17;;;17.30;48.90;;;;;;5008606;28;20450;-82
2021/04/22 08:57:25;;;;;;;7.57;3.42;;;17.20;48.80;;;;;;5026399;28;20052;-80
2021/04/22 08:59:53;;;;;;;6.75;3.25;;;17.10;48.80;;;;;;5025898;28;20034;-80
2021/04/22 09:02:20;;;;;;;12.40;4.65;;;17.00;48.70;;;;;;5024952;28;20168;-79
2021/04/22 09:04:47;;;;;;;12.02;3.58;;;17.00;48.80;;;;;;4992000;28;20032;-79
2021/04/22 09:07:15;;;;;;;7.50;3.08;;;16.80;48.50;;;;;;5008522;28;20045;-79
2021/04/22 09:09:41;;;;;;;7.07;2.88;;;16.80;48.60;;;;;;5025967;28;20034;-81
2021/04/22 09:12:18;;;;;;;10.07;3.17;;;16.70;48.50;;;;;;4992303;28;20077;-80
2021/04/22 09:15:08;;;;;;;9.07;3.30;;;16.70;48.50;;;;;;4956963;28;20506;-81
2021/04/22 09:17:34;;;;;;;6.57;3.13;;;16.60;48.40;;;;;;4957130;28;20484;-81
2021/04/22 09:20:00;;;;;;;11.02;3.45;;;16.60;48.50;;;;;;4973308;28;20090;-80
2021/04/22 09:22:41;;;;;;;7.88;3.47;;;16.50;48.30;;;;;;4974362;28;20133;-81
2021/04/22 09:25:27;;;;;;;5.72;2.65;;;16.50;48.30;;;;;;5008742;28;20469;-80
2021/04/22 09:28:05;;;;;;;10.90;3.47;;;16.50;48.40;;;;;;4976012;28;20064;-80
2021/04/22 09:30:45;;;;;;;10.75;3.72;;;16.40;48.20;;;;;;5008787;28;20030;-80
2021/04/22 09:33:25;;;;;;;8.63;3.85;;;16.40;48.20;;;;;;4991612;28;20036;-81
2021/04/22 09:35:53;;;;;;;8.55;3.10;;;16.40;48.30;;;;;;4975960;28;20034;-79
2021/04/22 09:38:19;;;;;;;10.27;4.05;;;16.40;48.30;;;;;;4991995;28;20065;-80
2021/04/22 09:40:46;;;;;;;7.85;3.08;;;16.30;48.10;;;;;;4975393;28;20026;-79
2021/04/22 09:43:14;;;;;;;8.80;3.30;;;16.40;48.30;;;;;;4991670;28;20127;-79
2021/04/22 09:45:46;;;;;;;7.63;3.50;;;16.30;48.10;;;;;;4991761;28;20025;-79
2021/04/22 09:48:21;;;;;;;7.57;3.28;;;16.30;48.10;;;;;;4991320;28;20486;-79
2021/04/22 09:50:48;;;;;;;14.05;4.15;;;16.30;48.10;;;;;;4991346;28;20026;-79
2021/04/22 09:53:16;;;;;;;10.45;3.40;;;16.40;48.30;;;;;;4974859;28;20488;-79
2021/04/22 09:55:44;;;;;;;10.40;3.97;;;16.30;48.10;;;;;;4990966;28;20559;-79
2021/04/22 09:58:10;;;;;;;7.68;3.45;;;16.40;48.30;;;;;;4975617;28;20401;-78
2021/04/22 10:00:36;;;;;;;9.18;3.67;;;16.40;48.20;;;;;;4991475;28;20033;-79
2021/04/22 10:03:10;;;;;;;7.40;3.33;;;16.40;48.20;;;;;;5009019;28;20481;-81
2021/04/22 10:05:39;;;;;;;4.95;3.00;;;16.40;48.10;;;;;;4975262;28;20470;-81
2021/04/22 10:08:13;;;;;;;9.82;3.47;;;16.40;48.10;;;;;;5012075;28;20094;-80
2021/04/22 10:10:58;;;;;;;11.25;3.85;;;16.40;48.00;;;;;;5032587;28;20045;-80
2021/04/22 10:13:24;;;;;;;9.18;3.33;;;16.40;47.90;;;;;;5027495;28;20063;-80
2021/04/22 10:15:56;;;;;;;7.13;3.33;;;16.50;48.10;;;;;;5029076;28;20399;-80
2021/04/22 10:18:33;;;;;;;8.43;3.80;;;16.50;48.00;;;;;;5011684;28;20072;-80
2021/04/22 10:20:59;;;;;;;8.98;3.58;;;16.50;48.00;;;;;;5029155;28;20059;-80
2021/04/22 10:23:28;;;;;;;8.95;4.25;;;16.50;48.00;;;;;;5028279;28;20030;-81
2021/04/22 10:25:54;;;;;;;7.80;3.22;;;16.50;47.80;;;;;;5010820;28;20371;-80
2021/04/22 10:28:20;;;;;;;9.43;3.25;;;16.60;48.00;;;;;;5010719;28;20439;-78
2021/04/22 10:30:48;;;;;;;7.97;3.60;;;16.60;48.00;;;;;;5010406;28;20121;-78
2021/04/22 10:33:15;;;;;;;7.75;3.53;;;16.60;47.90;;;;;;4993761;28;20403;-77
2021/04/22 10:35:43;;;;;;;8.73;3.50;;;16.60;47.80;;;;;;5011027;28;20032;-78
2021/04/22 10:38:10;;;;;;;6.85;3.35;;;16.70;47.90;;;;;;5010668;28;20063;-78
2021/04/22 10:40:42;;;;;;;9.48;3.72;;;16.70;47.90;;;;;;5010584;28;20385;-78
2021/04/22 10:43:14;;;;;;;11.23;3.40;;;16.70;47.80;;;;;;5028027;28;20037;-78
2021/04/22 10:45:41;;;;;;;10.07;4.15;;;16.70;47.70;;;;;;5027484;28;20451;-78
2021/04/22 10:48:07;;;;;;;7.20;2.90;;;16.80;47.80;;;;;;5009537;28;20038;-78
2021/04/22 10:50:39;;;;;;;8.70;3.67;;;16.80;47.80;;;;;;4993827;28;20068;-77
2021/04/22 10:53:11;;;;;;;9.10;3.70;;;16.90;47.90;;;;;;5010201;28;20030;-77
2021/04/22 10:55:39;;;;;;;7.68;3.08;;;16.90;47.80;;;;;;5009776;28;20061;-77
2021/04/22 10:58:24;;;;;;;7.25;3.38;;;17.00;47.90;;;;;;4993925;28;20029;-79
2021/04/22 11:01:04;;;;;;;7.13;3.38;;;17.00;47.80;;;;;;5010412;28;20042;-78
2021/04/22 11:03:32;;;;;;;8.70;4.00;;;17.00;47.70;;;;;;5010298;28;20116;-78
2021/04/22 11:06:08;;;;;;;7.15;3.33;;;17.10;47.80;;;;;;5010716;28;20415;-78
2021/04/22 11:08:47;;;;;;;10.38;3.92;;;17.10;47.80;;;;;;4994259;28;20501;-80
2021/04/22 11:11:22;;;;;;;11.73;4.13;;;17.20;47.80;;;;;;4993468;28;20083;-78
2021/04/22 11:13:50;;;;;;;8.93;3.70;;;17.20;47.80;;;;;;5009620;28;20018;-78
2021/04/22 11:16:16;;;;;;;10.10;4.43;;;17.30;47.90;;;;;;4993667;28;20030;-78
2021/04/22 11:18:47;;;;;;;9.80;3.38;;;17.30;47.80;;;;;;4993756;28;20025;-79
2021/04/22 11:21:28;;;;;;;7.78;3.47;;;17.40;47.90;;;;;;5010424;28;20029;-79
2021/04/22 11:23:56;;;;;;;9.70;3.90;;;17.40;47.80;;;;;;5009573;28;20396;-82
2021/04/22 11:26:32;;;;;;;6.00;3.33;;;17.50;47.90;;;;;;5009616;28;20691;-80
2021/04/22 11:29:09;;;;;;;7.57;3.80;;;17.50;47.90;;;;;;5010486;28;20029;-80
2021/04/22 11:31:47;;;;;;;14.70;4.72;;;17.60;48.00;;;;;;5009595;28;20044;-82
2021/04/22 11:34:14;;;;;;;7.50;5.15;;;17.60;48.10;;;;;;5009716;28;20056;-81
2021/04/22 11:36:51;;;;;;;8.75;4.70;;;17.70;48.40;;;;;;5009513;28;20025;-81
2021/04/22 11:39:32;;;;;;;9.90;5.10;;;17.80;48.60;;;;;;4993643;28;20487;-82
2021/04/22 11:42:01;;;;;;;10.35;4.40;;;17.80;48.60;;;;;;4992738;28;20033;-86
2021/04/22 11:44:54;;;;;;;11.88;5.20;;;17.90;48.70;;;;;;5006364;28;20037;-81
2021/04/22 11:47:30;;;;;;;7.85;4.88;;;17.90;48.70;;;;;;4989818;28;20572;-81
2021/04/22 11:50:18;;;;;;;6.28;4.25;;;18.00;49.00;;;;;;5041356;28;20041;-83
2021/04/22 11:52:53;;;;;;;12.35;4.97;;;18.10;49.20;;;;;;5010186;28;20025;-80
2021/04/22 11:55:26;;;;;;;6.05;4.10;;;18.20;49.30;;;;;;5010211;28;20079;-82
2021/04/22 11:57:54;;;;;;;8.88;4.78;;;18.20;49.20;;;;;;5008950;28;20541;-84
2021/04/22 12:00:22;;;;;;;10.45;5.03;;;18.30;49.30;;;;;;5009808;28;20191;-82
2021/04/22 12:02:48;;;;;;;7.53;3.97;;;18.40;49.50;;;;;;4992636;28;20048;-82
2021/04/22 12:05:20;;;;;;;11.38;4.25;;;18.40;49.40;;;;;;4993010;28;20128;-83
2021/04/22 12:07:59;;;;;;;9.98;3.88;;;18.50;49.40;;;;;;4992473;28;20045;-82
2021/04/22 12:10:27;;;;;;;10.85;4.43;;;18.60;49.40;;;;;;5009233;28;20103;-81
2021/04/22 12:13:11;;;;;;;9.48;4.28;;;18.60;49.30;;;;;;4977728;28;20379;-82
2021/04/22 12:15:59;;;;;;;10.10;4.50;;;18.70;49.30;;;;;;5009486;28;20025;-82
2021/04/22 12:18:26;;;;;;;7.85;4.38;;;18.80;49.40;;;;;;4993107;28;20504;-82
2021/04/22 12:20:55;;;;;;;9.48;3.97;;;18.80;49.30;;;;;;5009506;28;20033;-82
2021/04/22 12:23:32;;;;;;;6.53;3.78;;;18.90;49.30;;;;;;5026909;28;20036;-82
2021/04/22 12:26:18;;;;;;;7.38;3.83;;;19.00;49.30;;;;;;5008598;28;20052;-81
2021/04/22 12:28:56;;;;;;;7.00;3.83;;;19.10;49.40;;;;;;4990161;28;20587;-79
2021/04/22 12:31:30;;;;;;;8.38;4.10;;;19.10;49.20;;;;;;4992288;28;20033;-78
2021/04/22 12:34:18;;;;;;;6.82;3.40;;;19.20;49.30;;;;;;5024430;28;20511;-78
2021/04/22 12:37:01;;;;;;;6.20;3.70;;;19.30;49.40;;;;;;4992253;28;20045;-78
2021/04/22 12:39:48;;;;;;;4.20;2.95;;;19.30;49.20;;;;;;5008243;28;20447;-77
2021/04/22 12:42:23;;;;;;;6.10;3.63;;;19.40;49.30;;;;;;4992068;28;20168;-79
2021/04/22 12:45:00;;;;;;;6.40;2.95;;;19.40;49.20;;;;;;4991897;28;20409;-79
2021/04/22 12:47:35;;;;;;;5.55;3.17;;;19.50;49.20;;;;;;5008670;28;20052;-80
2021/04/22 12:50:02;;;;;;;5.43;3.28;;;19.60;49.30;;;;;;5008390;28;20075;-80
2021/04/22 12:52:28;;;;;;;4.57;3.13;;;19.60;49.30;;;;;;5008023;28;20053;-79
2021/04/22 12:55:09;;;;;;;6.22;3.20;;;19.70;49.40;;;;;;5026846;28;20484;-79